KOLS/OLS METAR and TAF weather

Enter ICAO airport designator
Station Type Date Time Source
KOLS METAR 2021/03/09 09:54 UTC NOAA

KOLS 090954Z AUTO 17003KT 10SM CLR 16/M03 A3010 RMK AO2 SLP141 T01611033


Station Type Date Time Source
KOLS Decoded METAR 2021/03/09 09:54 UTC NOAA

NOGALES INTERNATIONAL AIRPORT , AZ, United States (KOLS) 31-25N 110-51W 1184M
Mar 09, 2021 - 04:54 AM EST / 2021.03.09 0954 UTC
Wind: from the S (170 degrees) at 3 MPH (3 KT):0
Visibility: 10 mile(s):0
Sky conditions: clear
Temperature: 61.0 F (16.1 C)
Dew Point: 26.1 F (-3.3 C)
Relative Humidity: 26%
Pressure (altimeter): 30.1 in. Hg (1019 hPa)
ob: KOLS 090954Z AUTO 17003KT 10SM CLR 16/M03 A3010 RMK AO2 SLP141 T01611033
cycle: 10

Station Type Date Time Source
KOLS TAF 2021/03/09 06:22 UTC NOAA

TAF KOLS 090520Z 0906/1006 15006KT P6SM BKN250
FM091600 18010G17KT P6SM OVC250
FM091700 20013G20KT P6SM OVC250
FM092000 22021G29KT P6SM OVC250

Example: see airport list